sensor_id;sensor_type;location;lat;lon;timestamp;pressure;altitude;pressure_sealevel;temperature;humidity
37132;BME280;23035;50.032;21.978;2022-12-29T00:03:58;65496.69;;;3.12;100.00
37132;BME280;23035;50.032;21.978;2022-12-29T00:09:03;65535.50;;;3.47;100.00
37132;BME280;23035;50.032;21.978;2022-12-29T00:14:11;65548.94;;;3.62;100.00
37132;BME280;23035;50.032;21.978;2022-12-29T00:19:34;65523.78;;;3.36;100.00
37132;BME280;23035;50.032;21.978;2022-12-29T00:24:56;65532.28;;;3.44;100.00
37132;BME280;23035;50.032;21.978;2022-12-29T00:30:22;65486.47;;;3.00;100.00
37132;BME280;23035;50.032;21.978;2022-12-29T00:35:47;65481.66;;;2.96;100.00
37132;BME280;23035;50.032;21.978;2022-12-29T00:40:55;65525.47;;;3.40;100.00
37132;BME280;23035;50.032;21.978;2022-12-29T00:46:18;65498.81;;;3.14;100.00
37132;BME280;23035;50.032;21.978;2022-12-29T00:51:24;65466.84;;;2.84;100.00
37132;BME280;23035;50.032;21.978;2022-12-29T00:56:28;65532.94;;;3.47;100.00
37132;BME280;23035;50.032;21.978;2022-12-29T01:01:35;65522.28;;;3.37;100.00
37132;BME280;23035;50.032;21.978;2022-12-29T01:06:41;65489.22;;;3.05;100.00
37132;BME280;23035;50.032;21.978;2022-12-29T01:11:46;65497.13;;;3.10;100.00
37132;BME280;23035;50.032;21.978;2022-12-29T01:16:55;65488.59;;;3.02;100.00
37132;BME280;23035;50.032;21.978;2022-12-29T01:22:00;65481.31;;;3.00;100.00
37132;BME280;23035;50.032;21.978;2022-12-29T01:27:05;65467.91;;;2.85;100.00
37132;BME280;23035;50.032;21.978;2022-12-29T01:32:11;65517.38;;;3.30;100.00
37132;BME280;23035;50.032;21.978;2022-12-29T01:37:16;65508.84;;;3.22;100.00
37132;BME280;23035;50.032;21.978;2022-12-29T01:42:24;65513.13;;;3.26;100.00
37132;BME280;23035;50.032;21.978;2022-12-29T01:47:35;65516.31;;;3.29;100.00
37132;BME280;23035;50.032;21.978;2022-12-29T01:52:44;65504.78;;;3.23;100.00
37132;BME280;23035;50.032;21.978;2022-12-29T01:57:59;65555.78;;;3.66;98.19
37132;BME280;23035;50.032;21.978;2022-12-29T02:03:08;65528.66;;;3.43;98.72
37132;BME280;23035;50.032;21.978;2022-12-29T02:08:14;65569.63;;;3.80;95.25
37132;BME280;23035;50.032;21.978;2022-12-29T02:13:23;65503.72;;;3.22;98.02
37132;BME280;23035;50.032;21.978;2022-12-29T02:18:39;65599.06;;;4.10;93.67
37132;BME280;23035;50.032;21.978;2022-12-29T02:24:07;65605.47;;;4.16;92.12
37132;BME280;23035;50.032;21.978;2022-12-29T02:34:57;65560.66;;;3.73;92.36
37132;BME280;23035;50.032;21.978;2022-12-29T02:40:22;65547.78;;;3.59;91.31
37132;BME280;23035;50.032;21.978;2022-12-29T02:45:31;65561.31;;;3.77;91.34
37132;BME280;23035;50.032;21.978;2022-12-29T02:50:45;65572.50;;;3.87;89.00
37132;BME280;23035;50.032;21.978;2022-12-29T02:55:54;65595.44;;;4.09;88.36
37132;BME280;23035;50.032;21.978;2022-12-29T03:01:11;65563.22;;;3.73;88.04
37132;BME280;23035;50.032;21.978;2022-12-29T03:06:30;65615.94;;;4.21;87.12
37132;BME280;23035;50.032;21.978;2022-12-29T03:11:47;65540.50;;;3.57;89.08
37132;BME280;23035;50.032;21.978;2022-12-29T03:17:23;65527.72;;;3.44;90.29
37132;BME280;23035;50.032;21.978;2022-12-29T03:22:38;65558.28;;;3.79;88.69
37132;BME280;23035;50.032;21.978;2022-12-29T03:27:50;65579.88;;;3.92;87.00
37132;BME280;23035;50.032;21.978;2022-12-29T03:33:00;65518.00;;;3.33;89.97
37132;BME280;23035;50.032;21.978;2022-12-29T03:38:13;65556.06;;;3.74;88.60
37132;BME280;23035;50.032;21.978;2022-12-29T03:43:21;65544.03;;;3.55;86.68
37132;BME280;23035;50.032;21.978;2022-12-29T03:48:28;65540.75;;;3.50;86.33
37132;BME280;23035;50.032;21.978;2022-12-29T03:53:35;65589.28;;;3.96;85.47
37132;BME280;23035;50.032;21.978;2022-12-29T03:58:40;65614.44;;;4.22;83.77
37132;BME280;23035;50.032;21.978;2022-12-29T04:03:49;65546.91;;;3.63;84.72
37132;BME280;23035;50.032;21.978;2022-12-29T04:08:55;65556.31;;;3.67;84.18
37132;BME280;23035;50.032;21.978;2022-12-29T04:14:01;65571.34;;;3.84;82.85
37132;BME280;23035;50.032;21.978;2022-12-29T04:19:08;65588.94;;;4.00;82.41
37132;BME280;23035;50.032;21.978;2022-12-29T04:24:14;65585.75;;;3.97;82.10
37132;BME280;23035;50.032;21.978;2022-12-29T04:29:21;65572.81;;;3.83;82.66
37132;BME280;23035;50.032;21.978;2022-12-29T04:34:48;65562.38;;;3.78;82.85
37132;BME280;23035;50.032;21.978;2022-12-29T04:39:55;65582.97;;;3.92;81.59
37132;BME280;23035;50.032;21.978;2022-12-29T04:45:00;65630.09;;;4.42;79.04
37132;BME280;23035;50.032;21.978;2022-12-29T04:50:24;65656.25;;;4.67;78.30
37132;BME280;23035;50.032;21.978;2022-12-29T04:55:52;65658.41;;;4.69;78.66
37132;BME280;23035;50.032;21.978;2022-12-29T05:00:58;65665.88;;;4.76;77.94
37132;BME280;23035;50.032;21.978;2022-12-29T05:06:06;65651.47;;;4.63;79.49
37132;BME280;23035;50.032;21.978;2022-12-29T05:11:13;65603.34;;;4.14;79.90
37132;BME280;23035;50.032;21.978;2022-12-29T05:16:20;65639.72;;;4.51;77.89
37132;BME280;23035;50.032;21.978;2022-12-29T05:21:27;65589.47;;;4.01;79.62
37132;BME280;23035;50.032;21.978;2022-12-29T05:26:36;65691.94;;;4.99;78.11
37132;BME280;23035;50.032;21.978;2022-12-29T05:31:47;65626.19;;;4.34;79.10
37132;BME280;23035;50.032;21.978;2022-12-29T05:36:52;65648.78;;;4.60;77.59
37132;BME280;23035;50.032;21.978;2022-12-29T05:41:58;65648.59;;;4.55;77.84
37132;BME280;23035;50.032;21.978;2022-12-29T05:47:24;65637.69;;;4.52;77.87
37132;BME280;23035;50.032;21.978;2022-12-29T05:52:45;65629.56;;;4.42;79.05
37132;BME280;23035;50.032;21.978;2022-12-29T05:57:51;65586.91;;;4.01;79.34
37132;BME280;23035;50.032;21.978;2022-12-29T06:02:58;65677.84;;;4.80;76.62
37132;BME280;23035;50.032;21.978;2022-12-29T06:08:04;65678.06;;;4.85;76.02
37132;BME280;23035;50.032;21.978;2022-12-29T06:13:13;65684.25;;;4.86;78.22
37132;BME280;23035;50.032;21.978;2022-12-29T06:18:21;65625.84;;;4.38;78.56
37132;BME280;23035;50.032;21.978;2022-12-29T06:23:26;65621.38;;;4.29;79.08
37132;BME280;23035;50.032;21.978;2022-12-29T06:28:32;65635.97;;;4.48;78.13
37132;BME280;23035;50.032;21.978;2022-12-29T06:33:38;65624.03;;;4.31;79.68
37132;BME280;23035;50.032;21.978;2022-12-29T06:38:47;65670.66;;;4.81;78.47
37132;BME280;23035;50.032;21.978;2022-12-29T06:44:00;65633.84;;;4.46;78.18
37132;BME280;23035;50.032;21.978;2022-12-29T06:49:26;65687.22;;;4.97;76.31
37132;BME280;23035;50.032;21.978;2022-12-29T06:54:39;65646.66;;;4.58;78.58
37132;BME280;23035;50.032;21.978;2022-12-29T06:59:48;65663.22;;;4.74;78.33
37132;BME280;23035;50.032;21.978;2022-12-29T07:04:56;65675.94;;;4.83;78.97
37132;BME280;23035;50.032;21.978;2022-12-29T07:10:04;65666.19;;;4.72;78.15
37132;BME280;23035;50.032;21.978;2022-12-29T07:15:11;65621.47;;;4.31;79.82
37132;BME280;23035;50.032;21.978;2022-12-29T07:20:16;65658.41;;;4.69;78.16
37132;BME280;23035;50.032;21.978;2022-12-29T07:25:31;65664.19;;;4.72;79.23
37132;BME280;23035;50.032;21.978;2022-12-29T07:30:38;65680.28;;;4.90;78.36
37132;BME280;23035;50.032;21.978;2022-12-29T07:35:45;65618.72;;;4.26;80.45
37132;BME280;23035;50.032;21.978;2022-12-29T07:40:50;65677.16;;;4.89;80.26
37132;BME280;23035;50.032;21.978;2022-12-29T07:45:56;65658.94;;;4.70;81.53
37132;BME280;23035;50.032;21.978;2022-12-29T07:51:03;65705.72;;;5.09;80.07
37132;BME280;23035;50.032;21.978;2022-12-29T07:56:08;65649.31;;;4.60;81.38
37132;BME280;23035;50.032;21.978;2022-12-29T08:01:14;65684.34;;;4.89;80.83
37132;BME280;23035;50.032;21.978;2022-12-29T08:06:22;65607.16;;;4.20;85.11
37132;BME280;23035;50.032;21.978;2022-12-29T08:11:27;65623.63;;;4.34;85.38
37132;BME280;23035;50.032;21.978;2022-12-29T08:16:34;65640.78;;;4.52;84.92
37132;BME280;23035;50.032;21.978;2022-12-29T08:21:39;65679.03;;;4.84;82.29
37132;BME280;23035;50.032;21.978;2022-12-29T08:26:44;65656.63;;;4.63;83.42
37132;BME280;23035;50.032;21.978;2022-12-29T08:31:53;65681.78;;;4.89;83.51
37132;BME280;23035;50.032;21.978;2022-12-29T08:36:57;65708.56;;;5.17;83.04
37132;BME280;23035;50.032;21.978;2022-12-29T08:42:02;65727.19;;;5.32;82.07
37132;BME280;23035;50.032;21.978;2022-12-29T08:47:09;65731.44;;;5.36;82.38
37132;BME280;23035;50.032;21.978;2022-12-29T08:52:14;65737.41;;;5.44;82.27
37132;BME280;23035;50.032;21.978;2022-12-29T08:57:19;65745.31;;;5.50;82.01
37132;BME280;23035;50.032;21.978;2022-12-29T09:02:49;65719.16;;;5.25;83.77
37132;BME280;23035;50.032;21.978;2022-12-29T09:07:53;65770.72;;;5.81;81.69
37132;BME280;23035;50.032;21.978;2022-12-29T09:12:58;65745.97;;;5.53;82.30
37132;BME280;23035;50.032;21.978;2022-12-29T09:18:05;65787.00;;;5.89;81.48
37132;BME280;23035;50.032;21.978;2022-12-29T09:23:09;65798.78;;;6.00;79.73
37132;BME280;23035;50.032;21.978;2022-12-29T09:28:16;65860.78;;;6.59;78.79
37132;BME280;23035;50.032;21.978;2022-12-29T09:33:22;65780.06;;;5.83;81.52
37132;BME280;23035;50.032;21.978;2022-12-29T09:38:27;65795.56;;;5.97;80.66
37132;BME280;23035;50.032;21.978;2022-12-29T09:43:45;65791.91;;;5.96;82.29
37132;BME280;23035;50.032;21.978;2022-12-29T09:49:04;65794.59;;;5.99;81.89
37132;BME280;23035;50.032;21.978;2022-12-29T09:54:23;65802.16;;;6.09;81.50
37132;BME280;23035;50.032;21.978;2022-12-29T09:59:38;65781.22;;;5.86;84.18
37132;BME280;23035;50.032;21.978;2022-12-29T10:04:45;65862.47;;;6.64;81.53
37132;BME280;23035;50.032;21.978;2022-12-29T10:09:58;65843.66;;;6.43;81.85
37132;BME280;23035;50.032;21.978;2022-12-29T10:15:14;65885.38;;;6.83;79.97
37132;BME280;23035;50.032;21.978;2022-12-29T10:20:48;65812.75;;;6.16;81.87
37132;BME280;23035;50.032;21.978;2022-12-29T10:25:55;65815.25;;;6.14;83.23
37132;BME280;23035;50.032;21.978;2022-12-29T10:31:05;65837.34;;;6.40;82.75
37132;BME280;23035;50.032;21.978;2022-12-29T10:36:16;65871.47;;;6.70;81.73
37132;BME280;23035;50.032;21.978;2022-12-29T10:41:28;65923.97;;;7.22;79.46
37132;BME280;23035;50.032;21.978;2022-12-29T10:46:36;65908.44;;;7.07;79.41
37132;BME280;23035;50.032;21.978;2022-12-29T10:51:46;65920.13;;;7.16;80.12
37132;BME280;23035;50.032;21.978;2022-12-29T10:56:53;65909.88;;;7.04;80.20
37132;BME280;23035;50.032;21.978;2022-12-29T11:02:15;65916.56;;;7.17;80.12
37132;BME280;23035;50.032;21.978;2022-12-29T11:07:29;65958.56;;;7.50;78.78
37132;BME280;23035;50.032;21.978;2022-12-29T11:12:35;65929.13;;;7.22;81.12
37132;BME280;23035;50.032;21.978;2022-12-29T11:17:47;65961.84;;;7.56;79.66
37132;BME280;23035;50.032;21.978;2022-12-29T11:22:54;65939.91;;;7.35;80.73
37132;BME280;23035;50.032;21.978;2022-12-29T11:28:00;65949.53;;;7.44;79.51
37132;BME280;23035;50.032;21.978;2022-12-29T11:33:05;65905.16;;;7.02;81.18
37132;BME280;23035;50.032;21.978;2022-12-29T11:38:19;65885.81;;;6.81;82.69
37132;BME280;23035;50.032;21.978;2022-12-29T11:43:30;65885.91;;;6.83;82.81
37132;BME280;23035;50.032;21.978;2022-12-29T11:48:39;65889.28;;;6.92;81.67
37132;BME280;23035;50.032;21.978;2022-12-29T11:53:47;65874.66;;;6.73;82.04
37132;BME280;23035;50.032;21.978;2022-12-29T11:58:53;65939.28;;;7.32;80.24
37132;BME280;23035;50.032;21.978;2022-12-29T12:04:01;65917.00;;;7.15;81.93
37132;BME280;23035;50.032;21.978;2022-12-29T12:09:14;65950.81;;;7.50;79.73
37132;BME280;23035;50.032;21.978;2022-12-29T12:14:25;66015.91;;;8.07;76.45
37132;BME280;23035;50.032;21.978;2022-12-29T12:20:01;65964.00;;;7.58;78.85
37132;BME280;23035;50.032;21.978;2022-12-29T12:25:13;66067.84;;;8.56;74.41
37132;BME280;23035;50.032;21.978;2022-12-29T12:30:24;66018.50;;;8.07;76.53
37132;BME280;23035;50.032;21.978;2022-12-29T12:35:36;66044.81;;;8.34;75.73
37132;BME280;23035;50.032;21.978;2022-12-29T12:41:01;66041.59;;;8.31;76.09
37132;BME280;23035;50.032;21.978;2022-12-29T12:46:23;66006.34;;;8.00;77.10
37132;BME280;23035;50.032;21.978;2022-12-29T12:51:39;65996.72;;;7.91;79.34
37132;BME280;23035;50.032;21.978;2022-12-29T12:57:05;65909.41;;;7.06;83.19
37132;BME280;23035;50.032;21.978;2022-12-29T13:02:37;65975.22;;;7.68;80.15
37132;BME280;23035;50.032;21.978;2022-12-29T13:07:53;66003.22;;;8.00;79.01
37132;BME280;23035;50.032;21.978;2022-12-29T13:13:28;66008.94;;;8.00;80.01
37132;BME280;23035;50.032;21.978;2022-12-29T13:18:46;65988.25;;;7.86;81.04
37132;BME280;23035;50.032;21.978;2022-12-29T13:23:58;65971.03;;;7.67;81.87
37132;BME280;23035;50.032;21.978;2022-12-29T13:29:15;65991.81;;;7.84;82.18
37132;BME280;23035;50.032;21.978;2022-12-29T13:34:28;65974.25;;;7.70;83.81
37132;BME280;23035;50.032;21.978;2022-12-29T13:39:39;65994.94;;;7.85;83.50
37132;BME280;23035;50.032;21.978;2022-12-29T13:44:51;65994.03;;;7.89;83.40
37132;BME280;23035;50.032;21.978;2022-12-29T13:50:01;66001.53;;;7.96;83.31
37132;BME280;23035;50.032;21.978;2022-12-29T13:55:22;65942.03;;;7.37;86.00
37132;BME280;23035;50.032;21.978;2022-12-29T14:00:38;65866.13;;;6.65;91.31
37132;BME280;23035;50.032;21.978;2022-12-29T14:05:45;65854.53;;;6.58;93.44
37132;BME280;23035;50.032;21.978;2022-12-29T14:10:51;65895.06;;;6.95;91.14
37132;BME280;23035;50.032;21.978;2022-12-29T14:16:00;65854.63;;;6.61;94.69
37132;BME280;23035;50.032;21.978;2022-12-29T14:21:10;65844.72;;;6.44;96.17
37132;BME280;23035;50.032;21.978;2022-12-29T14:26:35;65856.41;;;6.53;94.53
37132;BME280;23035;50.032;21.978;2022-12-29T14:31:43;65923.34;;;7.19;90.83
37132;BME280;23035;50.032;21.978;2022-12-29T14:36:53;65892.22;;;6.87;92.10
37132;BME280;23035;50.032;21.978;2022-12-29T14:42:04;65856.50;;;6.55;95.44
37132;BME280;23035;50.032;21.978;2022-12-29T14:47:18;65846.78;;;6.44;97.16
37132;BME280;23035;50.032;21.978;2022-12-29T14:52:25;65882.78;;;6.83;94.53
37132;BME280;23035;50.032;21.978;2022-12-29T14:57:35;65861.41;;;6.63;98.75
37132;BME280;23035;50.032;21.978;2022-12-29T15:02:46;65843.66;;;6.43;98.29
37132;BME280;23035;50.032;21.978;2022-12-29T15:07:53;65796.75;;;6.01;100.00
37132;BME280;23035;50.032;21.978;2022-12-29T15:13:03;65820.03;;;6.18;100.00
37132;BME280;23035;50.032;21.978;2022-12-29T15:18:22;65808.81;;;6.08;100.00
37132;BME280;23035;50.032;21.978;2022-12-29T15:23:30;65816.31;;;6.15;100.00
37132;BME280;23035;50.032;21.978;2022-12-29T15:28:40;65815.88;;;6.17;100.00
37132;BME280;23035;50.032;21.978;2022-12-29T15:33:48;65827.72;;;6.30;100.00
37132;BME280;23035;50.032;21.978;2022-12-29T15:38:53;65770.53;;;5.76;100.00
37132;BME280;23035;50.032;21.978;2022-12-29T15:44:09;65818.66;;;6.22;100.00
37132;BME280;23035;50.032;21.978;2022-12-29T15:49:18;65793.44;;;5.95;100.00
37132;BME280;23035;50.032;21.978;2022-12-29T15:54:34;65852.66;;;6.49;100.00
37132;BME280;23035;50.032;21.978;2022-12-29T15:59:46;65804.19;;;6.08;100.00
37132;BME280;23035;50.032;21.978;2022-12-29T16:04:53;65843.66;;;6.43;100.00
37132;BME280;23035;50.032;21.978;2022-12-29T16:10:25;65812.22;;;6.16;100.00
37132;BME280;23035;50.032;21.978;2022-12-29T16:15:32;65787.44;;;5.87;100.00
37132;BME280;23035;50.032;21.978;2022-12-29T16:20:41;65793.97;;;5.96;100.00
37132;BME280;23035;50.032;21.978;2022-12-29T16:25:46;65782.72;;;5.85;100.00
37132;BME280;23035;50.032;21.978;2022-12-29T16:30:58;65761.44;;;5.67;100.00
37132;BME280;23035;50.032;21.978;2022-12-29T16:36:23;65772.56;;;5.75;100.00
37132;BME280;23035;50.032;21.978;2022-12-29T16:41:29;65815.41;;;6.19;100.00
37132;BME280;23035;50.032;21.978;2022-12-29T16:46:34;65780.16;;;5.85;100.00
37132;BME280;23035;50.032;21.978;2022-12-29T16:51:40;65775.88;;;5.81;100.00
37132;BME280;23035;50.032;21.978;2022-12-29T16:56:46;65748.44;;;5.50;100.00
37132;BME280;23035;50.032;21.978;2022-12-29T17:01:50;65770.88;;;5.71;100.00
37132;BME280;23035;50.032;21.978;2022-12-29T17:06:57;65748.63;;;5.55;100.00
37132;BME280;23035;50.032;21.978;2022-12-29T17:12:02;65719.69;;;5.25;100.00
37132;BME280;23035;50.032;21.978;2022-12-29T17:17:19;65797.59;;;5.97;100.00
37132;BME280;23035;50.032;21.978;2022-12-29T17:22:28;65768.84;;;5.72;100.00
37132;BME280;23035;50.032;21.978;2022-12-29T17:27:36;65796.09;;;5.98;100.00
37132;BME280;23035;50.032;21.978;2022-12-29T17:32:42;65748.97;;;5.51;100.00
37132;BME280;23035;50.032;21.978;2022-12-29T17:37:49;65777.38;;;5.80;100.00
37132;BME280;23035;50.032;21.978;2022-12-29T17:42:56;65755.75;;;5.67;100.00
37132;BME280;23035;50.032;21.978;2022-12-29T17:48:01;65759.75;;;5.63;100.00
37132;BME280;23035;50.032;21.978;2022-12-29T17:53:12;65769.38;;;5.72;100.00
37132;BME280;23035;50.032;21.978;2022-12-29T17:58:18;65722.44;;;5.30;100.00
37132;BME280;23035;50.032;21.978;2022-12-29T18:03:25;65758.59;;;5.60;100.00
37132;BME280;23035;50.032;21.978;2022-12-29T18:08:33;65728.13;;;5.31;100.00
37132;BME280;23035;50.032;21.978;2022-12-29T18:13:38;65761.44;;;5.67;100.00
37132;BME280;23035;50.032;21.978;2022-12-29T18:18:48;65773.00;;;5.73;100.00
37132;BME280;23035;50.032;21.978;2022-12-29T18:23:54;65779.41;;;5.80;100.00
37132;BME280;23035;50.032;21.978;2022-12-29T18:28:59;65751.22;;;5.55;100.00
37132;BME280;23035;50.032;21.978;2022-12-29T18:34:10;65751.13;;;5.53;100.00
37132;BME280;23035;50.032;21.978;2022-12-29T18:39:17;65795.75;;;6.02;100.00
37132;BME280;23035;50.032;21.978;2022-12-29T18:44:28;65748.44;;;5.50;100.00
37132;BME280;23035;50.032;21.978;2022-12-29T18:49:33;65743.00;;;5.42;100.00
37132;BME280;23035;50.032;21.978;2022-12-29T18:54:38;65777.81;;;5.78;100.00
37132;BME280;23035;50.032;21.978;2022-12-29T18:59:43;65762.50;;;5.68;100.00
37132;BME280;23035;50.032;21.978;2022-12-29T19:04:47;65729.41;;;5.37;100.00
37132;BME280;23035;50.032;21.978;2022-12-29T19:09:57;65785.91;;;5.88;100.00
37132;BME280;23035;50.032;21.978;2022-12-29T19:15:03;65793.50;;;5.98;100.00
37132;BME280;23035;50.032;21.978;2022-12-29T19:20:23;65796.09;;;5.98;100.00
37132;BME280;23035;50.032;21.978;2022-12-29T19:25:31;65714.25;;;5.17;100.00
37132;BME280;23035;50.032;21.978;2022-12-29T19:30:36;65740.44;;;5.42;100.00
37132;BME280;23035;50.032;21.978;2022-12-29T19:35:42;65768.19;;;5.69;100.00
37132;BME280;23035;50.032;21.978;2022-12-29T19:40:51;65744.16;;;5.46;100.00
37132;BME280;23035;50.032;21.978;2022-12-29T19:45:56;65770.34;;;5.71;100.00
37132;BME280;23035;50.032;21.978;2022-12-29T19:51:05;65739.38;;;5.41;100.00
37132;BME280;23035;50.032;21.978;2022-12-29T19:56:12;65740.09;;;5.47;100.00
37132;BME280;23035;50.032;21.978;2022-12-29T20:01:19;65727.81;;;5.35;100.00
37132;BME280;23035;50.032;21.978;2022-12-29T20:06:24;65721.66;;;5.22;100.00
37132;BME280;23035;50.032;21.978;2022-12-29T20:11:31;65760.28;;;5.64;100.00
37132;BME280;23035;50.032;21.978;2022-12-29T20:16:35;65745.31;;;5.50;100.00
37132;BME280;23035;50.032;21.978;2022-12-29T20:22:00;65757.19;;;5.63;100.00
37132;BME280;23035;50.032;21.978;2022-12-29T20:27:08;65792.81;;;5.92;100.00
37132;BME280;23035;50.032;21.978;2022-12-29T20:32:15;65765.63;;;5.69;100.00
37132;BME280;23035;50.032;21.978;2022-12-29T20:37:20;65758.78;;;5.65;100.00
37132;BME280;23035;50.032;21.978;2022-12-29T20:42:26;65788.50;;;5.88;100.00
37132;BME280;23035;50.032;21.978;2022-12-29T20:47:31;65732.59;;;5.40;100.00
37132;BME280;23035;50.032;21.978;2022-12-29T20:52:36;65765.44;;;5.64;100.00
37132;BME280;23035;50.032;21.978;2022-12-29T20:57:42;65753.69;;;5.53;100.00
37132;BME280;23035;50.032;21.978;2022-12-29T21:03:06;65755.38;;;5.57;100.00
37132;BME280;23035;50.032;21.978;2022-12-29T21:08:11;65766.06;;;5.67;100.00
37132;BME280;23035;50.032;21.978;2022-12-29T21:13:18;65806.88;;;6.11;100.00
37132;BME280;23035;50.032;21.978;2022-12-29T21:18:22;65773.63;;;5.76;100.00
37132;BME280;23035;50.032;21.978;2022-12-29T21:23:27;65774.25;;;5.80;100.00
37132;BME280;23035;50.032;21.978;2022-12-29T21:28:36;65831.03;;;6.36;100.00
37132;BME280;23035;50.032;21.978;2022-12-29T21:33:41;65818.00;;;6.19;100.00
37132;BME280;23035;50.032;21.978;2022-12-29T21:38:45;65845.34;;;6.47;100.00
37132;BME280;23035;50.032;21.978;2022-12-29T21:43:52;65885.69;;;6.78;100.00
37132;BME280;23035;50.032;21.978;2022-12-29T21:49:19;65867.19;;;6.66;100.00
37132;BME280;23035;50.032;21.978;2022-12-29T21:54:27;65832.53;;;6.35;100.00
37132;BME280;23035;50.032;21.978;2022-12-29T21:59:50;65796.63;;;5.98;100.00
37132;BME280;23035;50.032;21.978;2022-12-29T22:05:14;65830.84;;;6.31;100.00
37132;BME280;23035;50.032;21.978;2022-12-29T22:10:40;65803.59;;;6.05;100.00
37132;BME280;23035;50.032;21.978;2022-12-29T22:16:04;65828.69;;;6.29;100.00
37132;BME280;23035;50.032;21.978;2022-12-29T22:21:09;65821.13;;;6.19;100.00
37132;BME280;23035;50.032;21.978;2022-12-29T22:26:14;65819.50;;;6.18;100.00
37132;BME280;23035;50.032;21.978;2022-12-29T22:31:23;65799.31;;;6.01;100.00
37132;BME280;23035;50.032;21.978;2022-12-29T22:36:30;65785.38;;;5.88;100.00
37132;BME280;23035;50.032;21.978;2022-12-29T22:41:35;65826.03;;;6.26;100.00
37132;BME280;23035;50.032;21.978;2022-12-29T22:46:41;65846.94;;;6.49;100.00
37132;BME280;23035;50.032;21.978;2022-12-29T22:51:46;65823.81;;;6.22;100.00
37132;BME280;23035;50.032;21.978;2022-12-29T22:56:51;65881.63;;;6.79;100.00
37132;BME280;23035;50.032;21.978;2022-12-29T23:01:57;65870.41;;;6.69;100.00
37132;BME280;23035;50.032;21.978;2022-12-29T23:07:05;65853.28;;;6.52;100.00
37132;BME280;23035;50.032;21.978;2022-12-29T23:12:09;65844.81;;;6.47;100.00
37132;BME280;23035;50.032;21.978;2022-12-29T23:17:15;65850.63;;;6.50;100.00
37132;BME280;23035;50.032;21.978;2022-12-29T23:22:20;65867.72;;;6.66;100.00
37132;BME280;23035;50.032;21.978;2022-12-29T23:27:25;65825.56;;;6.28;100.00
37132;BME280;23035;50.032;21.978;2022-12-29T23:32:31;65825.50;;;6.26;100.00
37132;BME280;23035;50.032;21.978;2022-12-29T23:37:35;65834.03;;;6.34;100.00
37132;BME280;23035;50.032;21.978;2022-12-29T23:42:40;65831.47;;;6.34;100.00
37132;BME280;23035;50.032;21.978;2022-12-29T23:47:46;65876.81;;;6.75;100.00
37132;BME280;23035;50.032;21.978;2022-12-29T23:52:50;65834.66;;;6.37;100.00
37132;BME280;23035;50.032;21.978;2022-12-29T23:57:55;65821.13;;;6.19;100.00
